sensor_id;sensor_type;location;lat;lon;timestamp;temperature;humidity
19359;DHT22;9815;52.334;20.890;2023-06-14T00:02:22;12.20;99.90
19359;DHT22;9815;52.334;20.890;2023-06-14T00:04:50;12.30;99.90
19359;DHT22;9815;52.334;20.890;2023-06-14T00:07:18;12.30;99.90
19359;DHT22;9815;52.334;20.890;2023-06-14T00:09:46;12.30;99.90
19359;DHT22;9815;52.334;20.890;2023-06-14T00:12:14;12.30;99.90
19359;DHT22;9815;52.334;20.890;2023-06-14T00:14:42;12.30;99.90
19359;DHT22;9815;52.334;20.890;2023-06-14T00:17:10;12.40;99.90
19359;DHT22;9815;52.334;20.890;2023-06-14T00:19:40;12.30;99.90
19359;DHT22;9815;52.334;20.890;2023-06-14T00:22:08;12.30;99.90
19359;DHT22;9815;52.334;20.890;2023-06-14T00:24:36;12.30;99.90
19359;DHT22;9815;52.334;20.890;2023-06-14T00:27:05;12.40;99.90
19359;DHT22;9815;52.334;20.890;2023-06-14T00:29:34;12.30;99.90
19359;DHT22;9815;52.334;20.890;2023-06-14T00:32:04;12.30;99.90
19359;DHT22;9815;52.334;20.890;2023-06-14T00:34:32;12.30;99.90
19359;DHT22;9815;52.334;20.890;2023-06-14T00:37:02;12.30;99.90
19359;DHT22;9815;52.334;20.890;2023-06-14T00:39:30;12.30;99.90
19359;DHT22;9815;52.334;20.890;2023-06-14T00:41:58;12.30;99.90
19359;DHT22;9815;52.334;20.890;2023-06-14T00:44:26;12.30;99.90
19359;DHT22;9815;52.334;20.890;2023-06-14T00:46:55;12.20;99.90
19359;DHT22;9815;52.334;20.890;2023-06-14T00:49:23;12.20;99.90
19359;DHT22;9815;52.334;20.890;2023-06-14T00:51:52;12.20;99.90
19359;DHT22;9815;52.334;20.890;2023-06-14T00:54:21;12.20;99.90
19359;DHT22;9815;52.334;20.890;2023-06-14T00:56:49;12.20;99.90
19359;DHT22;9815;52.334;20.890;2023-06-14T00:59:18;12.20;99.90
19359;DHT22;9815;52.334;20.890;2023-06-14T01:01:47;12.30;99.90
19359;DHT22;9815;52.334;20.890;2023-06-14T01:04:15;12.30;99.90
19359;DHT22;9815;52.334;20.890;2023-06-14T01:06:50;12.30;99.90
19359;DHT22;9815;52.334;20.890;2023-06-14T01:09:27;12.30;99.90
19359;DHT22;9815;52.334;20.890;2023-06-14T01:12:05;12.40;99.90
19359;DHT22;9815;52.334;20.890;2023-06-14T01:14:35;12.40;99.90
19359;DHT22;9815;52.334;20.890;2023-06-14T01:17:05;12.40;99.90
19359;DHT22;9815;52.334;20.890;2023-06-14T01:19:34;12.40;99.90
19359;DHT22;9815;52.334;20.890;2023-06-14T01:22:03;12.40;99.90
19359;DHT22;9815;52.334;20.890;2023-06-14T01:24:33;12.40;99.90
19359;DHT22;9815;52.334;20.890;2023-06-14T01:27:02;12.30;99.90
19359;DHT22;9815;52.334;20.890;2023-06-14T01:29:31;12.30;99.90
19359;DHT22;9815;52.334;20.890;2023-06-14T01:32:00;12.30;99.90
19359;DHT22;9815;52.334;20.890;2023-06-14T01:34:30;12.40;99.90
19359;DHT22;9815;52.334;20.890;2023-06-14T01:37:00;12.40;99.90
19359;DHT22;9815;52.334;20.890;2023-06-14T01:39:33;12.40;99.90
19359;DHT22;9815;52.334;20.890;2023-06-14T01:42:02;12.40;99.90
19359;DHT22;9815;52.334;20.890;2023-06-14T01:44:30;12.40;99.90
19359;DHT22;9815;52.334;20.890;2023-06-14T01:47:01;12.40;99.90
19359;DHT22;9815;52.334;20.890;2023-06-14T01:49:29;12.60;99.90
19359;DHT22;9815;52.334;20.890;2023-06-14T01:51:57;12.60;99.90
19359;DHT22;9815;52.334;20.890;2023-06-14T01:54:25;12.50;99.90
19359;DHT22;9815;52.334;20.890;2023-06-14T01:56:56;12.50;99.90
19359;DHT22;9815;52.334;20.890;2023-06-14T01:59:24;12.50;99.90
19359;DHT22;9815;52.334;20.890;2023-06-14T02:01:52;12.40;99.90
19359;DHT22;9815;52.334;20.890;2023-06-14T02:04:20;12.40;99.90
19359;DHT22;9815;52.334;20.890;2023-06-14T02:06:48;12.50;99.90
19359;DHT22;9815;52.334;20.890;2023-06-14T02:09:17;12.50;99.90
19359;DHT22;9815;52.334;20.890;2023-06-14T02:11:45;12.50;99.90
19359;DHT22;9815;52.334;20.890;2023-06-14T02:14:15;12.50;99.90
19359;DHT22;9815;52.334;20.890;2023-06-14T02:16:43;12.70;99.90
19359;DHT22;9815;52.334;20.890;2023-06-14T02:19:15;12.80;99.90
19359;DHT22;9815;52.334;20.890;2023-06-14T02:21:44;12.70;99.90
19359;DHT22;9815;52.334;20.890;2023-06-14T02:24:12;12.60;99.90
19359;DHT22;9815;52.334;20.890;2023-06-14T02:26:41;12.60;99.90
19359;DHT22;9815;52.334;20.890;2023-06-14T02:29:15;12.60;99.90
19359;DHT22;9815;52.334;20.890;2023-06-14T02:31:43;12.70;99.90
19359;DHT22;9815;52.334;20.890;2023-06-14T02:34:13;12.70;99.90
19359;DHT22;9815;52.334;20.890;2023-06-14T02:36:43;12.60;99.90
19359;DHT22;9815;52.334;20.890;2023-06-14T02:39:11;12.60;99.90
19359;DHT22;9815;52.334;20.890;2023-06-14T02:41:40;12.60;99.90
19359;DHT22;9815;52.334;20.890;2023-06-14T02:44:09;12.60;99.90
19359;DHT22;9815;52.334;20.890;2023-06-14T02:46:40;12.60;99.90
19359;DHT22;9815;52.334;20.890;2023-06-14T02:49:08;12.60;99.90
19359;DHT22;9815;52.334;20.890;2023-06-14T02:51:37;12.60;99.90
19359;DHT22;9815;52.334;20.890;2023-06-14T02:54:05;12.70;99.90
19359;DHT22;9815;52.334;20.890;2023-06-14T02:56:33;12.70;99.90
19359;DHT22;9815;52.334;20.890;2023-06-14T02:59:02;12.90;99.90
19359;DHT22;9815;52.334;20.890;2023-06-14T03:01:32;12.90;99.90
19359;DHT22;9815;52.334;20.890;2023-06-14T03:04:07;12.80;99.90
19359;DHT22;9815;52.334;20.890;2023-06-14T03:06:38;12.80;99.90
19359;DHT22;9815;52.334;20.890;2023-06-14T03:09:07;12.70;99.90
19359;DHT22;9815;52.334;20.890;2023-06-14T03:11:38;12.80;99.90
19359;DHT22;9815;52.334;20.890;2023-06-14T03:14:06;12.80;99.90
19359;DHT22;9815;52.334;20.890;2023-06-14T03:16:36;12.80;99.90
19359;DHT22;9815;52.334;20.890;2023-06-14T03:19:08;12.80;99.90
19359;DHT22;9815;52.334;20.890;2023-06-14T03:21:37;12.80;99.90
19359;DHT22;9815;52.334;20.890;2023-06-14T03:24:11;12.80;99.90
19359;DHT22;9815;52.334;20.890;2023-06-14T03:26:39;12.80;99.90
19359;DHT22;9815;52.334;20.890;2023-06-14T03:29:08;12.80;99.90
19359;DHT22;9815;52.334;20.890;2023-06-14T03:31:41;12.90;99.90
19359;DHT22;9815;52.334;20.890;2023-06-14T03:34:25;12.90;99.90
19359;DHT22;9815;52.334;20.890;2023-06-14T03:36:54;12.90;99.90
19359;DHT22;9815;52.334;20.890;2023-06-14T03:39:22;13.10;99.90
19359;DHT22;9815;52.334;20.890;2023-06-14T03:41:51;13.00;99.90
19359;DHT22;9815;52.334;20.890;2023-06-14T03:44:19;13.00;99.90
19359;DHT22;9815;52.334;20.890;2023-06-14T03:46:47;13.10;99.90
19359;DHT22;9815;52.334;20.890;2023-06-14T03:49:15;13.10;99.90
19359;DHT22;9815;52.334;20.890;2023-06-14T03:51:47;13.10;99.90
19359;DHT22;9815;52.334;20.890;2023-06-14T03:54:20;13.10;99.90
19359;DHT22;9815;52.334;20.890;2023-06-14T03:56:52;13.30;99.90
19359;DHT22;9815;52.334;20.890;2023-06-14T03:59:20;13.30;99.90
19359;DHT22;9815;52.334;20.890;2023-06-14T04:01:48;13.40;99.90
19359;DHT22;9815;52.334;20.890;2023-06-14T04:04:16;13.40;99.90
19359;DHT22;9815;52.334;20.890;2023-06-14T04:06:46;13.30;99.90
19359;DHT22;9815;52.334;20.890;2023-06-14T04:09:15;13.30;99.90
19359;DHT22;9815;52.334;20.890;2023-06-14T04:11:45;13.30;99.90
19359;DHT22;9815;52.334;20.890;2023-06-14T04:14:13;13.40;99.90
19359;DHT22;9815;52.334;20.890;2023-06-14T04:16:42;13.50;99.90
19359;DHT22;9815;52.334;20.890;2023-06-14T04:19:10;13.50;99.90
19359;DHT22;9815;52.334;20.890;2023-06-14T04:21:38;13.50;99.90
19359;DHT22;9815;52.334;20.890;2023-06-14T04:24:08;13.60;99.90
19359;DHT22;9815;52.334;20.890;2023-06-14T04:26:41;13.60;99.90
19359;DHT22;9815;52.334;20.890;2023-06-14T04:29:13;13.60;99.90
19359;DHT22;9815;52.334;20.890;2023-06-14T04:31:47;13.70;99.90
19359;DHT22;9815;52.334;20.890;2023-06-14T04:34:16;13.60;99.90
19359;DHT22;9815;52.334;20.890;2023-06-14T04:36:54;13.90;99.90
19359;DHT22;9815;52.334;20.890;2023-06-14T04:39:30;13.80;99.90
19359;DHT22;9815;52.334;20.890;2023-06-14T04:42:00;13.90;99.90
19359;DHT22;9815;52.334;20.890;2023-06-14T04:44:30;13.70;99.90
19359;DHT22;9815;52.334;20.890;2023-06-14T04:47:03;13.80;99.90
19359;DHT22;9815;52.334;20.890;2023-06-14T04:49:31;13.80;99.90
19359;DHT22;9815;52.334;20.890;2023-06-14T04:52:00;13.80;99.90
19359;DHT22;9815;52.334;20.890;2023-06-14T04:54:35;13.80;99.90
19359;DHT22;9815;52.334;20.890;2023-06-14T04:57:08;13.80;99.90
19359;DHT22;9815;52.334;20.890;2023-06-14T04:59:42;13.80;99.90
19359;DHT22;9815;52.334;20.890;2023-06-14T05:02:11;13.90;99.90
19359;DHT22;9815;52.334;20.890;2023-06-14T05:04:39;14.10;99.90
19359;DHT22;9815;52.334;20.890;2023-06-14T05:07:08;14.10;99.90
19359;DHT22;9815;52.334;20.890;2023-06-14T05:09:38;14.00;99.90
19359;DHT22;9815;52.334;20.890;2023-06-14T05:12:07;14.00;99.90
19359;DHT22;9815;52.334;20.890;2023-06-14T05:14:41;14.00;99.90
19359;DHT22;9815;52.334;20.890;2023-06-14T05:17:10;14.00;99.90
19359;DHT22;9815;52.334;20.890;2023-06-14T05:19:38;14.00;99.90
19359;DHT22;9815;52.334;20.890;2023-06-14T05:22:10;14.00;99.90
19359;DHT22;9815;52.334;20.890;2023-06-14T05:24:42;14.00;99.90
19359;DHT22;9815;52.334;20.890;2023-06-14T05:27:11;14.00;99.90
19359;DHT22;9815;52.334;20.890;2023-06-14T05:29:39;14.10;99.90
19359;DHT22;9815;52.334;20.890;2023-06-14T05:32:09;14.10;99.90
19359;DHT22;9815;52.334;20.890;2023-06-14T05:34:37;14.10;99.90
19359;DHT22;9815;52.334;20.890;2023-06-14T05:37:05;14.10;99.90
19359;DHT22;9815;52.334;20.890;2023-06-14T05:39:33;14.10;99.90
19359;DHT22;9815;52.334;20.890;2023-06-14T05:42:03;14.10;99.90
19359;DHT22;9815;52.334;20.890;2023-06-14T05:44:31;14.10;99.90
19359;DHT22;9815;52.334;20.890;2023-06-14T05:46:59;14.00;99.90
19359;DHT22;9815;52.334;20.890;2023-06-14T05:49:27;14.00;99.90
19359;DHT22;9815;52.334;20.890;2023-06-14T05:51:56;14.00;99.90
19359;DHT22;9815;52.334;20.890;2023-06-14T05:54:24;13.90;99.90
19359;DHT22;9815;52.334;20.890;2023-06-14T05:56:52;13.90;99.90
19359;DHT22;9815;52.334;20.890;2023-06-14T05:59:22;14.00;99.90
19359;DHT22;9815;52.334;20.890;2023-06-14T06:01:50;14.00;99.90
19359;DHT22;9815;52.334;20.890;2023-06-14T06:04:18;14.10;99.90
19359;DHT22;9815;52.334;20.890;2023-06-14T06:06:47;14.20;99.90
19359;DHT22;9815;52.334;20.890;2023-06-14T06:09:15;14.20;99.90
19359;DHT22;9815;52.334;20.890;2023-06-14T06:11:46;14.20;99.90
19359;DHT22;9815;52.334;20.890;2023-06-14T06:14:21;14.30;99.90
19359;DHT22;9815;52.334;20.890;2023-06-14T06:16:50;14.40;99.90
19359;DHT22;9815;52.334;20.890;2023-06-14T06:19:19;14.50;99.90
19359;DHT22;9815;52.334;20.890;2023-06-14T06:21:47;14.60;99.90
19359;DHT22;9815;52.334;20.890;2023-06-14T06:24:16;14.70;99.90
19359;DHT22;9815;52.334;20.890;2023-06-14T06:26:50;14.70;99.90
19359;DHT22;9815;52.334;20.890;2023-06-14T06:29:18;14.80;99.90
19359;DHT22;9815;52.334;20.890;2023-06-14T06:31:47;14.80;99.90
19359;DHT22;9815;52.334;20.890;2023-06-14T06:34:16;14.90;99.90
19359;DHT22;9815;52.334;20.890;2023-06-14T06:36:44;14.80;99.90
19359;DHT22;9815;52.334;20.890;2023-06-14T06:39:12;14.90;99.90
19359;DHT22;9815;52.334;20.890;2023-06-14T06:41:41;15.00;99.90
19359;DHT22;9815;52.334;20.890;2023-06-14T06:44:09;15.00;99.90
19359;DHT22;9815;52.334;20.890;2023-06-14T06:46:39;15.00;99.90
19359;DHT22;9815;52.334;20.890;2023-06-14T06:49:10;15.00;99.90
19359;DHT22;9815;52.334;20.890;2023-06-14T06:51:41;15.00;99.90
19359;DHT22;9815;52.334;20.890;2023-06-14T06:54:11;15.10;99.90
19359;DHT22;9815;52.334;20.890;2023-06-14T06:56:39;15.10;99.90
19359;DHT22;9815;52.334;20.890;2023-06-14T06:59:07;15.10;99.90
19359;DHT22;9815;52.334;20.890;2023-06-14T07:01:35;15.10;99.90
19359;DHT22;9815;52.334;20.890;2023-06-14T07:04:03;15.10;99.90
19359;DHT22;9815;52.334;20.890;2023-06-14T07:06:33;15.30;99.90
19359;DHT22;9815;52.334;20.890;2023-06-14T07:09:01;15.40;99.90
19359;DHT22;9815;52.334;20.890;2023-06-14T07:11:31;15.40;99.90
19359;DHT22;9815;52.334;20.890;2023-06-14T07:13:59;15.40;99.90
19359;DHT22;9815;52.334;20.890;2023-06-14T07:16:27;15.50;99.90
19359;DHT22;9815;52.334;20.890;2023-06-14T07:18:56;15.30;99.90
19359;DHT22;9815;52.334;20.890;2023-06-14T07:21:24;15.20;99.90
19359;DHT22;9815;52.334;20.890;2023-06-14T07:23:54;15.40;99.90
19359;DHT22;9815;52.334;20.890;2023-06-14T07:26:23;15.40;99.90
19359;DHT22;9815;52.334;20.890;2023-06-14T07:28:51;15.40;99.90
19359;DHT22;9815;52.334;20.890;2023-06-14T07:31:19;15.40;99.90
19359;DHT22;9815;52.334;20.890;2023-06-14T07:33:48;15.40;99.90
19359;DHT22;9815;52.334;20.890;2023-06-14T07:36:16;15.40;99.90
19359;DHT22;9815;52.334;20.890;2023-06-14T07:38:46;15.60;99.90
19359;DHT22;9815;52.334;20.890;2023-06-14T07:41:16;15.60;99.90
19359;DHT22;9815;52.334;20.890;2023-06-14T07:43:44;15.70;99.90
19359;DHT22;9815;52.334;20.890;2023-06-14T07:46:12;15.80;99.90
19359;DHT22;9815;52.334;20.890;2023-06-14T07:48:40;15.90;99.90
19359;DHT22;9815;52.334;20.890;2023-06-14T07:51:09;15.90;99.90
19359;DHT22;9815;52.334;20.890;2023-06-14T07:53:37;16.00;99.90
19359;DHT22;9815;52.334;20.890;2023-06-14T07:56:05;16.20;99.90
19359;DHT22;9815;52.334;20.890;2023-06-14T07:58:34;16.30;99.90
19359;DHT22;9815;52.334;20.890;2023-06-14T08:01:02;16.50;99.90
19359;DHT22;9815;52.334;20.890;2023-06-14T08:03:33;16.70;99.90
19359;DHT22;9815;52.334;20.890;2023-06-14T08:06:01;16.90;99.90
19359;DHT22;9815;52.334;20.890;2023-06-14T08:08:29;16.90;99.90
19359;DHT22;9815;52.334;20.890;2023-06-14T08:10:58;17.00;99.90
19359;DHT22;9815;52.334;20.890;2023-06-14T08:13:26;17.10;99.90
19359;DHT22;9815;52.334;20.890;2023-06-14T08:15:55;17.00;99.90
19359;DHT22;9815;52.334;20.890;2023-06-14T08:18:25;17.10;99.90
19359;DHT22;9815;52.334;20.890;2023-06-14T08:20:53;16.90;99.90
19359;DHT22;9815;52.334;20.890;2023-06-14T08:23:21;16.90;99.90
19359;DHT22;9815;52.334;20.890;2023-06-14T08:25:49;17.00;99.90
19359;DHT22;9815;52.334;20.890;2023-06-14T08:28:17;17.00;99.90
19359;DHT22;9815;52.334;20.890;2023-06-14T08:30:45;17.20;99.90
19359;DHT22;9815;52.334;20.890;2023-06-14T08:33:15;17.30;99.90
19359;DHT22;9815;52.334;20.890;2023-06-14T08:35:43;17.50;99.90
19359;DHT22;9815;52.334;20.890;2023-06-14T08:38:12;17.60;99.90
19359;DHT22;9815;52.334;20.890;2023-06-14T08:40:41;17.60;99.90
19359;DHT22;9815;52.334;20.890;2023-06-14T08:43:09;17.70;99.90
19359;DHT22;9815;52.334;20.890;2023-06-14T08:45:38;17.60;99.90
19359;DHT22;9815;52.334;20.890;2023-06-14T08:48:07;17.70;99.90
19359;DHT22;9815;52.334;20.890;2023-06-14T08:50:40;17.90;99.90
19359;DHT22;9815;52.334;20.890;2023-06-14T08:53:11;18.00;99.90
19359;DHT22;9815;52.334;20.890;2023-06-14T08:55:47;18.00;99.90
19359;DHT22;9815;52.334;20.890;2023-06-14T08:58:16;18.10;99.90
19359;DHT22;9815;52.334;20.890;2023-06-14T09:00:46;18.00;99.90
19359;DHT22;9815;52.334;20.890;2023-06-14T09:03:14;18.00;99.90
19359;DHT22;9815;52.334;20.890;2023-06-14T09:05:45;18.00;99.90
19359;DHT22;9815;52.334;20.890;2023-06-14T09:08:13;18.00;99.90
19359;DHT22;9815;52.334;20.890;2023-06-14T09:10:43;18.50;99.90
19359;DHT22;9815;52.334;20.890;2023-06-14T09:13:12;18.60;99.90
19359;DHT22;9815;52.334;20.890;2023-06-14T09:15:40;19.00;99.90
19359;DHT22;9815;52.334;20.890;2023-06-14T09:18:08;19.20;99.90
19359;DHT22;9815;52.334;20.890;2023-06-14T09:20:37;19.40;99.90
19359;DHT22;9815;52.334;20.890;2023-06-14T09:23:06;19.70;99.90
19359;DHT22;9815;52.334;20.890;2023-06-14T09:25:42;19.70;99.90
19359;DHT22;9815;52.334;20.890;2023-06-14T09:28:11;19.80;99.90
19359;DHT22;9815;52.334;20.890;2023-06-14T09:30:39;19.90;99.90
19359;DHT22;9815;52.334;20.890;2023-06-14T09:33:07;19.90;99.90
19359;DHT22;9815;52.334;20.890;2023-06-14T09:35:35;19.50;99.60
19359;DHT22;9815;52.334;20.890;2023-06-14T09:38:05;19.40;99.90
19359;DHT22;9815;52.334;20.890;2023-06-14T09:40:35;19.50;99.90
19359;DHT22;9815;52.334;20.890;2023-06-14T09:43:06;19.40;99.90
19359;DHT22;9815;52.334;20.890;2023-06-14T09:45:38;19.20;99.90
19359;DHT22;9815;52.334;20.890;2023-06-14T09:48:07;19.10;99.90
19359;DHT22;9815;52.334;20.890;2023-06-14T09:50:36;19.00;99.90
19359;DHT22;9815;52.334;20.890;2023-06-14T09:53:07;18.90;99.90
19359;DHT22;9815;52.334;20.890;2023-06-14T09:55:38;18.60;99.90
19359;DHT22;9815;52.334;20.890;2023-06-14T09:58:09;18.50;99.90
19359;DHT22;9815;52.334;20.890;2023-06-14T10:00:39;18.40;99.90
19359;DHT22;9815;52.334;20.890;2023-06-14T10:03:12;18.20;99.90
19359;DHT22;9815;52.334;20.890;2023-06-14T10:05:43;18.00;99.90
19359;DHT22;9815;52.334;20.890;2023-06-14T10:08:16;18.20;99.90
19359;DHT22;9815;52.334;20.890;2023-06-14T10:10:46;18.30;99.90
19359;DHT22;9815;52.334;20.890;2023-06-14T10:13:15;18.20;99.90
19359;DHT22;9815;52.334;20.890;2023-06-14T10:15:51;18.20;99.90
19359;DHT22;9815;52.334;20.890;2023-06-14T10:18:27;18.20;99.90
19359;DHT22;9815;52.334;20.890;2023-06-14T10:21:04;18.20;99.90
19359;DHT22;9815;52.334;20.890;2023-06-14T10:23:41;18.20;99.90
19359;DHT22;9815;52.334;20.890;2023-06-14T10:26:19;18.30;99.90
19359;DHT22;9815;52.334;20.890;2023-06-14T10:28:59;18.20;99.90
19359;DHT22;9815;52.334;20.890;2023-06-14T10:31:42;18.20;99.90
19359;DHT22;9815;52.334;20.890;2023-06-14T10:34:11;18.60;99.90
19359;DHT22;9815;52.334;20.890;2023-06-14T10:36:42;18.90;99.90
19359;DHT22;9815;52.334;20.890;2023-06-14T10:39:15;18.80;99.90
19359;DHT22;9815;52.334;20.890;2023-06-14T10:41:51;18.90;95.20
19359;DHT22;9815;52.334;20.890;2023-06-14T10:44:40;18.80;99.90
19359;DHT22;9815;52.334;20.890;2023-06-14T10:47:24;19.30;92.30
19359;DHT22;9815;52.334;20.890;2023-06-14T10:49:53;19.20;72.00
19359;DHT22;9815;52.334;20.890;2023-06-14T10:52:24;19.20;74.00
19359;DHT22;9815;52.334;20.890;2023-06-14T10:55:04;19.10;67.00
19359;DHT22;9815;52.334;20.890;2023-06-14T10:57:33;19.40;76.80
19359;DHT22;9815;52.334;20.890;2023-06-14T11:00:18;19.70;80.10
19359;DHT22;9815;52.334;20.890;2023-06-14T11:05:49;20.00;67.30
19359;DHT22;9815;52.334;20.890;2023-06-14T11:08:36;20.40;65.30
19359;DHT22;9815;52.334;20.890;2023-06-14T11:11:09;21.10;57.30
19359;DHT22;9815;52.334;20.890;2023-06-14T11:13:38;21.80;45.80
19359;DHT22;9815;52.334;20.890;2023-06-14T11:16:13;22.20;41.00
19359;DHT22;9815;52.334;20.890;2023-06-14T11:18:42;22.20;41.90
19359;DHT22;9815;52.334;20.890;2023-06-14T11:21:15;22.00;43.10
19359;DHT22;9815;52.334;20.890;2023-06-14T11:23:49;21.50;45.00
19359;DHT22;9815;52.334;20.890;2023-06-14T11:26:26;21.30;43.60
19359;DHT22;9815;52.334;20.890;2023-06-14T11:28:56;21.10;48.10
19359;DHT22;9815;52.334;20.890;2023-06-14T11:31:25;20.90;49.20
19359;DHT22;9815;52.334;20.890;2023-06-14T11:33:54;21.00;43.10
19359;DHT22;9815;52.334;20.890;2023-06-14T11:36:26;21.30;47.10
19359;DHT22;9815;52.334;20.890;2023-06-14T11:38:58;21.70;43.30
19359;DHT22;9815;52.334;20.890;2023-06-14T11:41:35;21.60;42.20
19359;DHT22;9815;52.334;20.890;2023-06-14T11:44:04;21.70;39.10
19359;DHT22;9815;52.334;20.890;2023-06-14T11:46:33;21.30;40.60
19359;DHT22;9815;52.334;20.890;2023-06-14T11:49:01;21.20;39.80
19359;DHT22;9815;52.334;20.890;2023-06-14T11:51:32;21.10;41.30
19359;DHT22;9815;52.334;20.890;2023-06-14T11:54:01;21.20;46.50
19359;DHT22;9815;52.334;20.890;2023-06-14T11:56:30;21.10;45.10
19359;DHT22;9815;52.334;20.890;2023-06-14T11:59:00;21.10;44.80
19359;DHT22;9815;52.334;20.890;2023-06-14T12:01:30;21.30;47.50
19359;DHT22;9815;52.334;20.890;2023-06-14T12:03:59;21.80;43.30
19359;DHT22;9815;52.334;20.890;2023-06-14T12:06:29;22.40;35.30
19359;DHT22;9815;52.334;20.890;2023-06-14T12:09:02;22.60;33.20
19359;DHT22;9815;52.334;20.890;2023-06-14T12:11:34;22.70;33.70
19359;DHT22;9815;52.334;20.890;2023-06-14T12:14:05;23.30;31.90
19359;DHT22;9815;52.334;20.890;2023-06-14T12:16:34;23.70;28.90
19359;DHT22;9815;52.334;20.890;2023-06-14T12:19:11;23.60;28.50
19359;DHT22;9815;52.334;20.890;2023-06-14T12:21:40;23.50;27.40
19359;DHT22;9815;52.334;20.890;2023-06-14T12:24:09;23.00;31.30
19359;DHT22;9815;52.334;20.890;2023-06-14T12:26:40;22.80;30.00
19359;DHT22;9815;52.334;20.890;2023-06-14T12:29:10;22.70;31.90
19359;DHT22;9815;52.334;20.890;2023-06-14T12:31:40;22.80;32.40
19359;DHT22;9815;52.334;20.890;2023-06-14T12:34:09;22.70;32.30
19359;DHT22;9815;52.334;20.890;2023-06-14T12:36:38;22.70;33.30
19359;DHT22;9815;52.334;20.890;2023-06-14T12:39:11;22.30;29.80
19359;DHT22;9815;52.334;20.890;2023-06-14T12:41:39;22.00;30.80
19359;DHT22;9815;52.334;20.890;2023-06-14T12:44:10;22.30;30.90
19359;DHT22;9815;52.334;20.890;2023-06-14T12:46:39;22.70;32.40
19359;DHT22;9815;52.334;20.890;2023-06-14T12:49:09;23.10;29.70
19359;DHT22;9815;52.334;20.890;2023-06-14T12:51:37;22.90;29.20
19359;DHT22;9815;52.334;20.890;2023-06-14T12:54:06;22.70;31.30
19359;DHT22;9815;52.334;20.890;2023-06-14T12:56:34;22.60;30.90
19359;DHT22;9815;52.334;20.890;2023-06-14T12:59:03;22.70;31.40
19359;DHT22;9815;52.334;20.890;2023-06-14T13:01:34;23.30;33.10
19359;DHT22;9815;52.334;20.890;2023-06-14T13:04:02;23.50;29.70
19359;DHT22;9815;52.334;20.890;2023-06-14T13:06:31;23.40;29.30
19359;DHT22;9815;52.334;20.890;2023-06-14T13:08:59;23.50;30.20
19359;DHT22;9815;52.334;20.890;2023-06-14T13:11:28;23.30;28.20
19359;DHT22;9815;52.334;20.890;2023-06-14T13:13:57;23.30;29.10
19359;DHT22;9815;52.334;20.890;2023-06-14T13:16:28;23.30;27.70
19359;DHT22;9815;52.334;20.890;2023-06-14T13:18:57;22.80;29.80
19359;DHT22;9815;52.334;20.890;2023-06-14T13:21:25;22.30;30.40
19359;DHT22;9815;52.334;20.890;2023-06-14T13:23:53;21.90;32.30
19359;DHT22;9815;52.334;20.890;2023-06-14T13:26:22;21.70;29.90
19359;DHT22;9815;52.334;20.890;2023-06-14T13:28:50;21.40;32.40
19359;DHT22;9815;52.334;20.890;2023-06-14T13:31:19;21.50;31.30
19359;DHT22;9815;52.334;20.890;2023-06-14T13:33:47;21.60;33.00
19359;DHT22;9815;52.334;20.890;2023-06-14T13:36:16;21.70;30.00
19359;DHT22;9815;52.334;20.890;2023-06-14T13:38:44;21.80;34.20
19359;DHT22;9815;52.334;20.890;2023-06-14T13:41:15;22.00;31.90
19359;DHT22;9815;52.334;20.890;2023-06-14T13:43:43;22.10;31.70
19359;DHT22;9815;52.334;20.890;2023-06-14T13:46:11;22.40;31.60
19359;DHT22;9815;52.334;20.890;2023-06-14T13:48:39;22.10;31.50
19359;DHT22;9815;52.334;20.890;2023-06-14T13:51:07;22.10;31.40
19359;DHT22;9815;52.334;20.890;2023-06-14T13:53:37;22.50;32.20
19359;DHT22;9815;52.334;20.890;2023-06-14T13:56:05;22.30;30.90
19359;DHT22;9815;52.334;20.890;2023-06-14T13:58:34;22.00;31.80
19359;DHT22;9815;52.334;20.890;2023-06-14T14:01:02;21.50;29.80
19359;DHT22;9815;52.334;20.890;2023-06-14T14:03:30;21.00;31.50
19359;DHT22;9815;52.334;20.890;2023-06-14T14:06:00;20.30;33.40
19359;DHT22;9815;52.334;20.890;2023-06-14T14:08:28;20.40;37.40
19359;DHT22;9815;52.334;20.890;2023-06-14T14:10:58;20.10;38.70
19359;DHT22;9815;52.334;20.890;2023-06-14T14:13:27;20.40;39.60
19359;DHT22;9815;52.334;20.890;2023-06-14T14:15:56;20.40;38.10
19359;DHT22;9815;52.334;20.890;2023-06-14T14:18:24;19.90;33.50
19359;DHT22;9815;52.334;20.890;2023-06-14T14:20:54;19.90;36.10
19359;DHT22;9815;52.334;20.890;2023-06-14T14:23:22;19.70;40.00
19359;DHT22;9815;52.334;20.890;2023-06-14T14:25:51;20.00;46.50
19359;DHT22;9815;52.334;20.890;2023-06-14T14:28:20;20.50;48.10
19359;DHT22;9815;52.334;20.890;2023-06-14T14:30:48;20.80;43.30
19359;DHT22;9815;52.334;20.890;2023-06-14T14:33:16;20.60;43.70
19359;DHT22;9815;52.334;20.890;2023-06-14T14:35:45;20.20;48.30
19359;DHT22;9815;52.334;20.890;2023-06-14T14:38:14;20.60;45.10
19359;DHT22;9815;52.334;20.890;2023-06-14T14:40:43;20.40;46.70
19359;DHT22;9815;52.334;20.890;2023-06-14T14:43:11;20.30;49.80
19359;DHT22;9815;52.334;20.890;2023-06-14T14:45:41;20.50;49.50
19359;DHT22;9815;52.334;20.890;2023-06-14T14:48:09;20.60;47.40
19359;DHT22;9815;52.334;20.890;2023-06-14T14:50:37;20.40;46.80
19359;DHT22;9815;52.334;20.890;2023-06-14T14:53:05;20.20;53.80
19359;DHT22;9815;52.334;20.890;2023-06-14T14:55:34;20.40;59.50
19359;DHT22;9815;52.334;20.890;2023-06-14T14:58:04;20.20;58.80
19359;DHT22;9815;52.334;20.890;2023-06-14T15:00:33;20.20;62.70
19359;DHT22;9815;52.334;20.890;2023-06-14T15:03:03;20.50;55.00
19359;DHT22;9815;52.334;20.890;2023-06-14T15:05:31;20.50;52.10
19359;DHT22;9815;52.334;20.890;2023-06-14T15:07:59;20.60;50.20
19359;DHT22;9815;52.334;20.890;2023-06-14T15:10:27;20.20;50.90
19359;DHT22;9815;52.334;20.890;2023-06-14T15:12:55;20.20;57.70
19359;DHT22;9815;52.334;20.890;2023-06-14T15:15:24;20.30;52.50
19359;DHT22;9815;52.334;20.890;2023-06-14T15:17:52;19.90;60.60
19359;DHT22;9815;52.334;20.890;2023-06-14T15:20:21;20.00;60.40
19359;DHT22;9815;52.334;20.890;2023-06-14T15:22:49;19.50;63.40
19359;DHT22;9815;52.334;20.890;2023-06-14T15:25:18;19.70;70.10
19359;DHT22;9815;52.334;20.890;2023-06-14T15:27:48;19.50;62.20
19359;DHT22;9815;52.334;20.890;2023-06-14T15:30:16;19.70;70.10
19359;DHT22;9815;52.334;20.890;2023-06-14T15:32:44;20.20;67.60
19359;DHT22;9815;52.334;20.890;2023-06-14T15:35:13;20.30;48.80
19359;DHT22;9815;52.334;20.890;2023-06-14T15:37:42;20.60;49.40
19359;DHT22;9815;52.334;20.890;2023-06-14T15:40:11;20.70;49.90
19359;DHT22;9815;52.334;20.890;2023-06-14T15:42:40;20.70;46.50
19359;DHT22;9815;52.334;20.890;2023-06-14T15:45:08;20.50;45.80
19359;DHT22;9815;52.334;20.890;2023-06-14T15:47:37;20.10;52.50
19359;DHT22;9815;52.334;20.890;2023-06-14T15:50:06;19.90;57.00